createdAt,value
2022-11-14T00:01:10.150Z,6.10
2022-11-14T00:03:36.966Z,6.04
2022-11-14T00:06:07.140Z,5.96
2022-11-14T00:08:34.203Z,6.02
2022-11-14T00:11:01.070Z,6.03
2022-11-14T00:13:27.869Z,5.98
2022-11-14T00:15:54.737Z,5.97
2022-11-14T00:18:22.441Z,5.94
2022-11-14T00:20:50.958Z,5.91
2022-11-14T00:23:18.209Z,5.92
2022-11-14T00:25:46.578Z,5.89
2022-11-14T00:28:14.046Z,5.91
2022-11-14T00:30:41.000Z,5.85
2022-11-14T00:33:07.856Z,5.80
2022-11-14T00:35:34.739Z,5.81
2022-11-14T00:38:01.535Z,5.79
2022-11-14T00:40:28.382Z,5.74
2022-11-14T00:42:55.250Z,5.76
2022-11-14T00:45:22.023Z,5.75
2022-11-14T00:47:48.835Z,5.75
2022-11-14T00:50:17.286Z,5.86
2022-11-14T00:52:44.148Z,5.75
2022-11-14T00:55:11.081Z,5.74
2022-11-14T00:57:37.829Z,5.79
2022-11-14T01:00:06.624Z,5.67
2022-11-14T01:02:33.613Z,5.71
2022-11-14T01:05:00.560Z,5.67
2022-11-14T01:07:27.436Z,5.67
2022-11-14T01:09:54.189Z,5.68
2022-11-14T01:12:21.055Z,5.65
2022-11-14T01:14:47.999Z,5.60
2022-11-14T01:17:14.764Z,5.61
2022-11-14T01:19:41.667Z,5.65
2022-11-14T01:22:09.040Z,5.60
2022-11-14T01:24:35.865Z,5.59
2022-11-14T01:27:03.090Z,5.54
2022-11-14T01:29:30.064Z,5.59
2022-11-14T01:31:56.843Z,5.54
2022-11-14T01:34:23.872Z,5.56
2022-11-14T01:36:50.725Z,5.58
2022-11-14T01:39:17.570Z,5.48
2022-11-14T01:41:44.344Z,5.45
2022-11-14T01:44:38.760Z,5.50
2022-11-14T01:47:06.234Z,5.49
2022-11-14T01:49:47.097Z,5.50
2022-11-14T01:52:20.977Z,5.51
2022-11-14T01:54:52.620Z,5.49
2022-11-14T01:57:28.476Z,5.49
2022-11-14T01:59:58.993Z,5.48
2022-11-14T02:02:26.524Z,5.50
2022-11-14T02:05:10.894Z,5.49
2022-11-14T02:07:40.542Z,5.51
2022-11-14T02:10:18.257Z,5.39
2022-11-14T02:12:46.242Z,5.44
2022-11-14T02:15:14.382Z,5.48
2022-11-14T02:17:42.536Z,5.58
2022-11-14T02:20:12.436Z,5.58
2022-11-14T02:22:41.658Z,5.49
2022-11-14T02:25:11.010Z,5.50
2022-11-14T02:27:39.560Z,5.52
2022-11-14T02:30:15.365Z,5.52
2022-11-14T02:33:09.592Z,5.54
2022-11-14T02:35:28.964Z,5.55
2022-11-14T02:37:55.773Z,5.53
2022-11-14T02:40:22.594Z,5.52
2022-11-14T02:42:49.431Z,5.47
2022-11-14T02:45:16.247Z,5.53
2022-11-14T02:47:43.003Z,5.45
2022-11-14T02:50:10.256Z,5.55
2022-11-14T02:52:37.024Z,5.56
2022-11-14T02:55:05.553Z,5.57
2022-11-14T02:57:32.364Z,5.49
2022-11-14T02:59:59.131Z,5.53
2022-11-14T03:02:26.008Z,5.53
2022-11-14T03:04:53.036Z,5.48
2022-11-14T03:07:19.833Z,5.54
2022-11-14T03:09:46.597Z,5.66
2022-11-14T03:12:18.078Z,5.54
2022-11-14T03:14:45.558Z,5.51
2022-11-14T03:17:12.493Z,5.49
2022-11-14T03:19:39.694Z,5.50
2022-11-14T03:22:06.706Z,5.48
2022-11-14T03:24:33.696Z,5.43
2022-11-14T03:27:00.514Z,5.45
2022-11-14T03:29:27.507Z,5.43
2022-11-14T03:31:54.343Z,5.45
2022-11-14T03:34:21.112Z,5.47
2022-11-14T03:36:47.953Z,5.39
2022-11-14T03:39:14.733Z,5.41
2022-11-14T03:41:41.554Z,5.38
2022-11-14T03:44:08.382Z,5.39
2022-11-14T03:46:35.116Z,5.36
2022-11-14T03:49:01.912Z,5.45
2022-11-14T03:51:28.695Z,5.46
2022-11-14T03:53:55.505Z,5.46
2022-11-14T03:56:23.037Z,5.51
2022-11-14T03:58:49.882Z,5.50
2022-11-14T04:01:16.722Z,5.47
2022-11-14T04:03:43.601Z,5.51
2022-11-14T04:06:10.517Z,5.46
2022-11-14T04:08:40.062Z,5.45
2022-11-14T04:11:07.193Z,5.53
2022-11-14T04:13:34.141Z,5.45
2022-11-14T04:16:01.042Z,5.41
2022-11-14T04:18:28.709Z,5.39
2022-11-14T04:20:55.876Z,5.39
2022-11-14T04:23:22.723Z,5.39
2022-11-14T04:25:49.599Z,5.41
2022-11-14T04:28:16.420Z,5.33
2022-11-14T04:30:45.309Z,5.30
2022-11-14T04:33:12.406Z,5.28
2022-11-14T04:35:39.425Z,5.31
2022-11-14T04:38:06.482Z,5.34
2022-11-14T04:40:33.297Z,5.38
2022-11-14T04:43:00.056Z,5.46
2022-11-14T04:45:27.271Z,5.48
2022-11-14T04:47:54.066Z,5.32
2022-11-14T04:50:20.876Z,5.18
2022-11-14T04:52:51.514Z,4.99
2022-11-14T04:55:18.332Z,5.01
2022-11-14T04:57:45.119Z,5.03
2022-11-14T05:00:12.988Z,5.01
2022-11-14T05:02:39.738Z,5.07
2022-11-14T05:05:06.873Z,5.09
2022-11-14T05:07:34.014Z,5.12
2022-11-14T05:10:00.875Z,5.12
2022-11-14T05:12:27.630Z,5.12
2022-11-14T05:14:54.411Z,5.12
2022-11-14T05:17:21.260Z,4.91
2022-11-14T05:19:48.110Z,5.14
2022-11-14T05:22:15.016Z,5.14
2022-11-14T05:24:41.784Z,5.14
2022-11-14T05:27:08.594Z,5.12
2022-11-14T05:29:35.374Z,5.11
2022-11-14T05:32:02.187Z,5.13
2022-11-14T05:34:28.947Z,5.17
2022-11-14T05:36:55.695Z,5.14
2022-11-14T05:39:22.501Z,5.12
2022-11-14T05:41:49.269Z,5.07
2022-11-14T05:44:16.059Z,5.08
2022-11-14T05:46:42.805Z,5.04
2022-11-14T05:49:09.555Z,5.21
2022-11-14T05:51:36.300Z,5.15
2022-11-14T05:54:03.159Z,5.11
2022-11-14T05:56:29.943Z,5.11
2022-11-14T05:58:56.734Z,5.11
2022-11-14T06:01:23.652Z,5.11
2022-11-14T06:03:50.617Z,5.11
2022-11-14T06:06:20.220Z,5.15
2022-11-14T06:08:48.239Z,5.17
2022-11-14T06:11:18.780Z,5.14
2022-11-14T06:13:45.955Z,5.16
2022-11-14T06:16:17.280Z,5.19
2022-11-14T06:18:44.978Z,5.19
2022-11-14T06:21:24.092Z,5.16
2022-11-14T06:23:51.295Z,5.12
2022-11-14T06:26:32.470Z,5.14
2022-11-14T06:29:00.503Z,5.14
2022-11-14T06:31:27.813Z,5.04
2022-11-14T06:33:54.815Z,5.26
2022-11-14T06:36:21.635Z,5.20
2022-11-14T06:38:48.466Z,5.22
2022-11-14T06:41:21.107Z,5.28
2022-11-14T06:43:50.707Z,5.26
2022-11-14T06:46:21.466Z,5.12
2022-11-14T06:48:49.448Z,5.25
2022-11-14T06:51:17.238Z,5.27
2022-11-14T06:53:44.757Z,5.37
2022-11-14T06:56:14.771Z,5.39
2022-11-14T06:58:45.251Z,5.36
2022-11-14T07:01:18.467Z,5.24
2022-11-14T07:03:45.795Z,5.25
2022-11-14T07:06:16.500Z,5.32
2022-11-14T07:08:43.345Z,5.37
2022-11-14T07:11:12.841Z,5.37
2022-11-14T07:13:39.721Z,5.41
2022-11-14T07:16:06.941Z,5.41
2022-11-14T07:18:34.533Z,5.44
2022-11-14T07:21:06.245Z,5.43
2022-11-14T07:23:34.332Z,5.41
2022-11-14T07:26:03.171Z,5.46
2022-11-14T07:28:32.081Z,5.41
2022-11-14T07:30:59.203Z,5.50
2022-11-14T07:33:25.968Z,5.50
2022-11-14T07:35:52.712Z,5.49
2022-11-14T07:38:19.462Z,5.51
2022-11-14T07:41:02.384Z,5.44
2022-11-14T07:43:29.565Z,5.52
2022-11-14T07:46:08.080Z,5.50
2022-11-14T07:48:35.103Z,5.56
2022-11-14T07:51:04.855Z,5.54
2022-11-14T07:53:32.528Z,5.60
2022-11-14T07:56:05.803Z,5.62
2022-11-14T07:58:38.332Z,5.68
2022-11-14T08:01:07.423Z,5.69
2022-11-14T08:03:34.759Z,5.78
2022-11-14T08:06:07.586Z,5.81
2022-11-14T08:08:35.125Z,5.85
2022-11-14T08:11:02.277Z,5.64
2022-11-14T08:13:32.340Z,5.87
2022-11-14T08:16:07.795Z,5.86
2022-11-14T08:18:37.800Z,5.87
2022-11-14T08:21:05.368Z,5.88
2022-11-14T08:23:32.183Z,5.92
2022-11-14T08:25:59.847Z,5.97
2022-11-14T08:28:27.113Z,5.76
2022-11-14T08:31:02.919Z,6.05
2022-11-14T08:33:31.188Z,6.08
2022-11-14T08:36:06.864Z,6.11
2022-11-14T08:38:34.608Z,6.15
2022-11-14T08:41:02.051Z,6.13
2022-11-14T08:43:29.748Z,6.16
2022-11-14T08:46:04.719Z,6.21
2022-11-14T08:48:33.111Z,6.22
2022-11-14T08:51:05.847Z,6.22
2022-11-14T08:53:34.060Z,6.19
2022-11-14T08:56:00.864Z,6.24
2022-11-14T08:58:30.684Z,6.29
2022-11-14T09:01:02.639Z,6.25
2022-11-14T09:03:29.636Z,6.35
2022-11-14T09:05:56.572Z,6.12
2022-11-14T09:08:23.755Z,6.44
2022-11-14T09:10:50.614Z,6.43
2022-11-14T09:13:17.641Z,6.43
2022-11-14T09:15:44.904Z,6.45
2022-11-14T09:18:12.438Z,6.44
2022-11-14T09:20:40.464Z,6.50
2022-11-14T09:23:07.606Z,6.52
2022-11-14T09:25:35.842Z,6.48
2022-11-14T09:28:07.175Z,6.50
2022-11-14T09:30:34.520Z,6.52
2022-11-14T09:33:08.392Z,6.44
2022-11-14T09:35:38.157Z,6.57
2022-11-14T09:38:11.104Z,6.61
2022-11-14T09:41:03.149Z,6.62
2022-11-14T09:44:23.271Z,6.60
2022-11-14T09:47:02.044Z,6.64
2022-11-14T09:49:46.378Z,6.60
2022-11-14T09:52:30.583Z,6.69
2022-11-14T09:55:11.928Z,6.70
2022-11-14T09:57:44.150Z,6.69
2022-11-14T10:00:23.569Z,6.79
2022-11-14T10:03:24.523Z,6.80
2022-11-14T10:06:33.309Z,6.82
2022-11-14T10:09:51.654Z,6.87
2022-11-14T10:12:27.336Z,6.96
2022-11-14T10:15:13.100Z,6.98
2022-11-14T10:17:53.688Z,7.01
2022-11-14T10:20:48.434Z,7.01
2022-11-14T10:23:37.106Z,7.05
2022-11-14T10:26:08.476Z,7.09
2022-11-14T10:28:49.171Z,7.10
2022-11-14T10:31:52.803Z,7.13
2022-11-14T10:34:33.857Z,7.21
2022-11-14T10:37:30.938Z,7.24
2022-11-14T10:40:24.501Z,7.33
2022-11-14T10:43:00.664Z,7.37
2022-11-14T10:45:36.047Z,7.43
2022-11-14T10:48:36.456Z,7.47
2022-11-14T10:51:29.692Z,7.53
2022-11-14T10:54:03.891Z,7.52
2022-11-14T10:56:30.756Z,7.58
2022-11-14T10:58:57.545Z,7.64
2022-11-14T11:01:53.968Z,7.67
2022-11-14T11:04:32.774Z,7.72
2022-11-14T11:07:08.455Z,7.75
2022-11-14T11:09:58.380Z,7.78
2022-11-14T11:12:36.979Z,7.81
2022-11-14T11:15:22.871Z,7.85
2022-11-14T11:18:02.488Z,7.90
2022-11-14T11:20:41.119Z,7.95
2022-11-14T11:23:10.824Z,8.02
2022-11-14T11:25:40.050Z,8.13
2022-11-14T11:28:30.664Z,8.03
2022-11-14T11:31:01.254Z,8.16
2022-11-14T11:33:34.400Z,8.23
2022-11-14T11:36:07.549Z,8.25
2022-11-14T11:38:34.726Z,8.31
2022-11-14T11:42:07.311Z,8.34
2022-11-14T11:44:19.305Z,8.39
2022-11-14T11:46:55.206Z,8.44
2022-11-14T11:49:30.893Z,8.47
2022-11-14T11:52:06.147Z,8.51
2022-11-14T11:55:18.112Z,8.55
2022-11-14T11:57:56.853Z,8.59
2022-11-14T12:00:23.893Z,8.63
2022-11-14T12:02:53.092Z,8.65
2022-11-14T12:06:11.530Z,8.70
2022-11-14T12:09:13.949Z,8.73
2022-11-14T12:11:46.079Z,8.76
2022-11-14T12:14:43.889Z,8.73
2022-11-14T12:17:46.497Z,8.84
2022-11-14T12:20:56.291Z,8.87
2022-11-14T12:23:52.228Z,8.93
2022-11-14T12:26:51.287Z,8.96
2022-11-14T12:29:53.965Z,8.99
2022-11-14T12:32:32.942Z,8.96
2022-11-14T12:35:04.557Z,9.07
2022-11-14T12:37:52.712Z,9.12
2022-11-14T12:40:31.944Z,9.17
2022-11-14T12:43:00.907Z,9.23
2022-11-14T12:45:42.599Z,9.30
2022-11-14T12:48:28.707Z,9.40
2022-11-14T12:50:57.549Z,9.44
2022-11-14T12:53:36.134Z,9.57
2022-11-14T12:56:30.847Z,9.69
2022-11-14T12:59:13.490Z,9.76
2022-11-14T13:01:52.490Z,9.80
2022-11-14T13:05:04.267Z,9.90
2022-11-14T13:08:10.104Z,10.02
2022-11-14T13:10:40.309Z,10.01
2022-11-14T13:13:29.861Z,10.13
2022-11-14T13:16:20.501Z,10.29
2022-11-14T13:19:19.052Z,10.46
2022-11-14T13:22:15.205Z,10.56
2022-11-14T13:25:00.375Z,10.64
2022-11-14T13:28:05.203Z,10.69
2022-11-14T13:31:16.232Z,10.89
2022-11-14T13:34:00.083Z,11.08
2022-11-14T13:36:48.003Z,11.26
2022-11-14T13:39:45.416Z,11.28
2022-11-14T13:42:26.812Z,11.29
2022-11-14T13:45:05.413Z,11.32
2022-11-14T13:48:03.415Z,11.33
2022-11-14T13:50:36.811Z,11.36
2022-11-14T13:53:14.839Z,11.38
2022-11-14T13:55:51.276Z,11.42
2022-11-14T13:58:59.111Z,11.50
2022-11-14T14:01:31.519Z,11.51
2022-11-14T14:04:28.307Z,11.57
2022-11-14T14:07:07.893Z,11.68
2022-11-14T14:10:23.195Z,11.70
2022-11-14T14:13:11.007Z,11.78
2022-11-14T14:15:50.163Z,11.89
2022-11-14T14:19:04.614Z,11.96
2022-11-14T14:21:52.996Z,12.07
2022-11-14T14:24:35.801Z,12.15
2022-11-14T14:27:46.536Z,12.14
2022-11-14T14:30:16.851Z,12.27
2022-11-14T14:32:43.776Z,12.28
2022-11-14T14:35:40.213Z,12.31
2022-11-14T14:38:13.699Z,12.29
2022-11-14T14:40:42.362Z,12.34
2022-11-14T14:43:24.193Z,12.29
2022-11-14T14:45:54.290Z,12.35
2022-11-14T14:48:29.459Z,12.36
2022-11-14T14:50:58.868Z,12.42
2022-11-14T14:53:32.862Z,12.38
2022-11-14T14:56:04.853Z,12.39
2022-11-14T14:58:34.913Z,12.24
2022-11-14T15:01:06.726Z,12.37
2022-11-14T15:03:44.077Z,12.33
2022-11-14T15:06:35.450Z,12.29
2022-11-14T15:09:24.454Z,12.27
2022-11-14T15:11:56.626Z,12.24
2022-11-14T15:14:28.479Z,12.21
2022-11-14T15:16:57.455Z,12.19
2022-11-14T15:19:31.660Z,12.13
2022-11-14T15:22:15.926Z,12.17
2022-11-14T15:24:42.772Z,12.16
2022-11-14T15:27:16.376Z,12.13
2022-11-14T15:29:54.268Z,12.12
2022-11-14T15:32:24.206Z,12.10
2022-11-14T15:35:25.473Z,12.08
2022-11-14T15:41:23.062Z,12.05
2022-11-14T15:43:55.152Z,12.06
2022-11-14T15:46:48.777Z,12.04
2022-11-14T15:49:23.997Z,12.01
2022-11-14T15:52:20.568Z,11.99
2022-11-14T15:54:47.439Z,11.97
2022-11-14T15:57:17.243Z,11.98
2022-11-14T15:59:44.061Z,11.96
2022-11-14T16:02:28.186Z,11.82
2022-11-14T16:04:56.469Z,11.92
2022-11-14T16:07:23.481Z,11.91
2022-11-14T16:09:51.128Z,11.82
2022-11-14T16:12:17.943Z,11.88
2022-11-14T16:14:44.987Z,11.86
2022-11-14T16:17:17.656Z,11.84
2022-11-14T16:19:44.608Z,11.84
2022-11-14T16:22:17.845Z,11.82
2022-11-14T16:24:44.825Z,11.82
2022-11-14T16:27:11.576Z,11.80
2022-11-14T16:29:38.406Z,11.79
2022-11-14T16:32:05.366Z,11.78
2022-11-14T16:34:32.229Z,11.77
2022-11-14T16:37:01.533Z,11.75
2022-11-14T16:39:29.367Z,11.75
2022-11-14T16:42:03.149Z,11.75
2022-11-14T16:44:31.283Z,11.72
2022-11-14T16:47:00.358Z,11.72
2022-11-14T16:49:27.147Z,11.70
2022-11-14T16:51:56.538Z,11.69
2022-11-14T16:54:24.445Z,11.67
2022-11-14T16:56:51.225Z,11.65
2022-11-14T16:59:18.041Z,11.64
2022-11-14T17:01:45.937Z,11.60
2022-11-14T17:04:12.908Z,11.60
2022-11-14T17:06:39.779Z,11.58
2022-11-14T17:09:06.608Z,11.52
2022-11-14T17:11:33.372Z,11.53
2022-11-14T17:14:00.160Z,11.51
2022-11-14T17:16:26.954Z,11.48
2022-11-14T17:18:55.656Z,11.47
2022-11-14T17:21:23.343Z,11.44
2022-11-14T17:24:00.345Z,11.42
2022-11-14T17:26:28.066Z,11.41
2022-11-14T17:28:55.102Z,11.41
2022-11-14T17:31:22.102Z,11.38
2022-11-14T17:33:53.803Z,11.37
2022-11-14T17:36:22.341Z,11.34
2022-11-14T17:38:49.132Z,11.29
2022-11-14T17:41:16.044Z,11.27
2022-11-14T17:43:43.215Z,11.26
2022-11-14T17:46:16.033Z,11.26
2022-11-14T17:48:44.499Z,11.21
2022-11-14T17:51:15.753Z,11.21
2022-11-14T17:53:43.532Z,11.13
2022-11-14T17:56:18.999Z,11.08
2022-11-14T17:58:47.045Z,11.12
2022-11-14T18:01:17.794Z,11.10
2022-11-14T18:03:44.689Z,11.06
2022-11-14T18:06:16.436Z,11.03
2022-11-14T18:08:43.308Z,11.05
2022-11-14T18:11:12.759Z,11.02
2022-11-14T18:13:41.096Z,10.97
2022-11-14T18:16:17.371Z,10.89
2022-11-14T18:18:44.363Z,10.86
2022-11-14T18:21:15.474Z,10.80
2022-11-14T18:23:42.363Z,10.79
2022-11-14T18:26:14.581Z,10.82
2022-11-14T18:28:42.049Z,10.67
2022-11-14T18:31:10.593Z,10.71
2022-11-14T18:33:39.118Z,10.71
2022-11-14T18:36:10.301Z,10.62
2022-11-14T18:38:37.118Z,10.64
2022-11-14T18:41:09.542Z,10.63
2022-11-14T18:43:36.603Z,10.62
2022-11-14T18:46:17.574Z,10.61
2022-11-14T18:48:47.952Z,10.62
2022-11-14T18:51:25.806Z,10.56
2022-11-14T18:53:55.201Z,10.45
2022-11-14T18:56:24.727Z,10.43
2022-11-14T18:58:56.860Z,10.43
2022-11-14T19:01:29.667Z,10.47
2022-11-14T19:04:00.142Z,10.35
2022-11-14T19:06:27.355Z,10.44
2022-11-14T19:08:58.608Z,10.38
2022-11-14T19:11:44.764Z,10.48
2022-11-14T19:14:11.812Z,10.50
2022-11-14T19:16:39.037Z,10.48
2022-11-14T19:19:07.116Z,10.50
2022-11-14T19:21:34.465Z,10.49
2022-11-14T19:24:01.521Z,10.48
2022-11-14T19:26:29.312Z,10.37
2022-11-14T19:28:57.431Z,10.45
2022-11-14T19:31:24.336Z,10.42
2022-11-14T19:33:51.223Z,10.35
2022-11-14T19:36:52.681Z,10.32
2022-11-14T19:39:08.953Z,10.35
2022-11-14T19:41:35.765Z,10.29
2022-11-14T19:44:03.481Z,10.28
2022-11-14T19:46:30.372Z,10.33
2022-11-14T19:49:01.661Z,10.28
2022-11-14T19:51:29.706Z,10.23
2022-11-14T19:53:59.109Z,10.24
2022-11-14T19:56:26.615Z,10.23
2022-11-14T19:58:56.196Z,10.21
2022-11-14T20:01:28.048Z,10.18
2022-11-14T20:03:58.151Z,10.14
2022-11-14T20:06:32.074Z,10.11
2022-11-14T20:09:10.797Z,10.07
2022-11-14T20:11:38.136Z,9.89
2022-11-14T20:14:06.086Z,9.94
2022-11-14T20:16:36.338Z,9.86
2022-11-14T20:19:03.532Z,9.97
2022-11-14T20:21:33.665Z,9.96
2022-11-14T20:24:00.768Z,9.87
2022-11-14T20:26:27.762Z,9.82
2022-11-14T20:28:54.804Z,9.80
2022-11-14T20:31:27.997Z,9.81
2022-11-14T20:33:55.839Z,9.84
2022-11-14T20:36:32.020Z,9.83
2022-11-14T20:39:02.090Z,9.79
2022-11-14T20:41:28.861Z,9.81
2022-11-14T20:43:55.615Z,9.74
2022-11-14T20:46:22.392Z,9.76
2022-11-14T20:48:49.481Z,9.70
2022-11-14T20:51:24.857Z,9.51
2022-11-14T20:53:54.187Z,9.63
2022-11-14T20:56:22.723Z,9.63
2022-11-14T20:58:52.106Z,9.63
2022-11-14T21:01:19.422Z,9.59
2022-11-14T21:03:47.313Z,9.56
2022-11-14T21:06:15.628Z,9.58
2022-11-14T21:08:42.836Z,9.59
2022-11-14T21:11:14.309Z,9.55
2022-11-14T21:13:56.025Z,9.54
2022-11-14T21:16:31.735Z,9.49
2022-11-14T21:18:59.598Z,9.52
2022-11-14T21:21:28.638Z,9.47
2022-11-14T21:23:55.993Z,9.50
2022-11-14T21:26:30.282Z,9.50
2022-11-14T21:29:03.640Z,9.47
2022-11-14T21:31:34.165Z,9.42
2022-11-14T21:34:04.972Z,9.39
2022-11-14T21:36:47.476Z,9.37
2022-11-14T21:39:16.522Z,9.34
2022-11-14T21:41:44.938Z,9.32
2022-11-14T21:44:16.301Z,9.33
2022-11-14T21:46:46.101Z,9.32
2022-11-14T21:49:13.081Z,9.29
2022-11-14T21:51:39.858Z,9.31
2022-11-14T21:54:06.695Z,9.26
2022-11-14T21:56:36.908Z,9.37
2022-11-14T21:59:14.245Z,9.31
2022-11-14T22:02:02.997Z,9.37
2022-11-14T22:04:31.278Z,9.31
2022-11-14T22:06:59.759Z,9.28
2022-11-14T22:09:30.728Z,9.23
2022-11-14T22:11:57.948Z,9.22
2022-11-14T22:14:25.152Z,9.25
2022-11-14T22:16:51.992Z,9.12
2022-11-14T22:19:18.952Z,9.25
2022-11-14T22:21:45.870Z,9.21
2022-11-14T22:24:12.718Z,9.21
2022-11-14T22:26:40.411Z,9.15
2022-11-14T22:29:08.673Z,9.12
2022-11-14T22:31:37.014Z,9.15
2022-11-14T22:34:04.378Z,9.09
2022-11-14T22:36:31.254Z,9.06
2022-11-14T22:38:58.481Z,9.07
2022-11-14T22:41:32.189Z,9.05
2022-11-14T22:43:59.676Z,9.02
2022-11-14T22:46:27.267Z,8.94
2022-11-14T22:48:54.723Z,8.99
2022-11-14T22:51:24.260Z,8.93
2022-11-14T22:53:57.205Z,8.95
2022-11-14T22:56:28.425Z,8.94
2022-11-14T22:58:56.103Z,8.88
2022-11-14T23:01:29.527Z,8.60
2022-11-14T23:04:02.543Z,8.81
2022-11-14T23:06:31.636Z,8.83
2022-11-14T23:08:58.774Z,8.84
2022-11-14T23:11:29.578Z,8.81
2022-11-14T23:13:58.377Z,8.78
2022-11-14T23:16:28.803Z,8.77
2022-11-14T23:18:59.058Z,8.79
2022-11-14T23:21:30.805Z,8.67
2022-11-14T23:24:06.815Z,8.73
2022-11-14T23:26:34.713Z,8.69
2022-11-14T23:29:01.756Z,8.67
2022-11-14T23:31:28.564Z,8.69
2022-11-14T23:33:57.676Z,8.70
2022-11-14T23:36:24.688Z,8.68
2022-11-14T23:38:54.652Z,8.68
2022-11-14T23:41:25.568Z,8.69
2022-11-14T23:43:52.518Z,8.67
2022-11-14T23:46:19.324Z,8.68
2022-11-14T23:48:46.076Z,8.71
2022-11-14T23:51:13.650Z,8.74
2022-11-14T23:53:41.076Z,8.73
2022-11-14T23:56:15.518Z,8.71
2022-11-14T23:58:42.478Z,8.68
